Terminal Aerodrome Forecast
Issued by NWS Rapid City, SD

Home | Current Version | Previous Version | Graphics & Text | Print | Product List | Glossary On
Versions: 1 2 3 4 5 6 7 8 9 10 11 12 13 14 15 16 17 18 19 20 21 22 23 24 25 26 27 28 29
030
FTUS43 KUNR 300317 AAA
TAFRAP
TAF AMD
KRAP 300317Z 3003/3024 03006KT P6SM OVC035
     FM300600 01005KT P6SM OVC015
     FM300900 01011KT 3SM -RA BR OVC007
     FM301200 36018G28KT P6SM OVC015
     FM301900 04015KT P6SM OVC025=

USA.gov is the U.S. government's official web portal to all federal, state and local government web resources and services.